Laredo, Texas
Current Conditions -  °F | °C
As of 8:56 PM on Saturday 22 Nov 2014 (Local Time) from KLRD Reporting Station
Clear Clear  
Wind Chill: 63°   Ceiling: Unl
Heat Index: 63°   Visibility: 10mi
Dew Point: 58°   Wind: 6mph
Humidity: 84%   Direction: 20°NNE
Pressure: 29.82"   Gusts: 16mph
Location:  27.53°N, 99.5°W
Report Text: KLRD 230256Z AUTO 02005G14KT 10SM CLR 17/14 A2982 RMK AO2 53032 T01720144 SLP089
Loading
Personal Weather Stations






























Interactive Weather Map New forecast layout! Learn more

10-Day Weather Forecast

Advertisements
Track Severe Weather on mobile